Time;durP1;ratioP1;P1;durP2;ratioP2;P2;SDS_P1;SDS_P2;PMS_P1;PMS_P2;Temp;Humidity;BMP_temperature;BMP_pressure;BME280_temperature;BME280_humidity;BME280_pressure;Samples;Min_cycle;Max_cycle;Signal;HPM_P1;HPM_P2
2020/12/14 00:00:12;;;;;;;3.58;0.88;;;;;;;;;;5073549;28;20040;-79
2020/12/14 00:02:38;;;;;;;4.53;0.77;;;;;;;;;;5074254;28;20062;-79
2020/12/14 00:05:03;;;;;;;5.43;0.90;;;;;;;;;;5074160;28;20028;-79
2020/12/14 00:07:28;;;;;;;4.70;0.98;;;;;;;;;;5074152;28;20074;-79
2020/12/14 00:09:53;;;;;;;8.27;2.08;;;;;;;;;;5073973;28;20031;-79
2020/12/14 00:12:19;;;;;;;2.13;0.80;;;;;;;;;;5072145;28;20024;-79
2020/12/14 00:14:44;;;;;;;3.83;1.00;;;;;;;;;;5072120;28;20066;-79
2020/12/14 00:17:09;;;;;;;5.07;0.90;;;;;;;;;;5073710;28;20028;-79
2020/12/14 00:19:34;;;;;;;4.95;0.90;;;;;;;;;;5071812;28;20538;-79
2020/12/14 00:21:59;;;;;;;5.95;1.10;;;;;;;;;;5073688;28;20032;-79
2020/12/14 00:24:25;;;;;;;5.03;1.05;;;;;;;;;;5073614;28;20070;-79
2020/12/14 00:26:50;;;;;;;7.32;1.20;;;;;;;;;;5070836;28;20031;-79
2020/12/14 00:29:16;;;;;;;3.75;0.80;;;;;;;;;;5069038;28;20034;-79
2020/12/14 00:31:41;;;;;;;2.58;0.85;;;;;;;;;;5062816;28;20055;-79
2020/12/14 00:34:06;;;;;;;1.63;0.90;;;;;;;;;;5065343;28;20685;-79
2020/12/14 00:36:31;;;;;;;3.30;0.85;;;;;;;;;;5072046;28;20065;-79
2020/12/14 00:38:56;;;;;;;3.85;1.05;;;;;;;;;;5071441;28;20021;-79
2020/12/14 00:41:22;;;;;;;3.90;0.90;;;;;;;;;;5073337;28;20117;-79
2020/12/14 00:43:47;;;;;;;3.28;1.02;;;;;;;;;;5073325;28;20107;-79
2020/12/14 00:46:13;;;;;;;4.28;0.80;;;;;;;;;;5073973;28;20020;-79
2020/12/14 00:48:39;;;;;;;2.78;0.80;;;;;;;;;;5071504;28;20039;-79
2020/12/14 00:51:04;;;;;;;1.00;0.52;;;;;;;;;;5072942;28;20057;-79
2020/12/14 00:53:29;;;;;;;1.50;0.70;;;;;;;;;;5071223;28;20009;-79
2020/12/14 00:55:54;;;;;;;2.17;0.70;;;;;;;;;;5071560;28;20017;-79
2020/12/14 00:58:19;;;;;;;3.97;0.75;;;;;;;;;;5071451;28;20528;-79
2020/12/14 01:00:45;;;;;;;3.85;0.80;;;;;;;;;;5073088;28;20380;-79
2020/12/14 01:03:10;;;;;;;2.38;1.00;;;;;;;;;;5072480;28;20024;-79
2020/12/14 01:05:35;;;;;;;2.92;0.80;;;;;;;;;;5072211;28;20021;-79
2020/12/14 01:08:00;;;;;;;2.25;0.90;;;;;;;;;;5062270;28;20041;-79
2020/12/14 01:10:25;;;;;;;3.80;1.45;;;;;;;;;;5068772;28;20016;-79
2020/12/14 01:12:51;;;;;;;2.33;0.80;;;;;;;;;;5071298;28;20104;-79
2020/12/14 01:15:16;;;;;;;3.08;1.05;;;;;;;;;;5072780;28;20065;-79
2020/12/14 01:17:41;;;;;;;3.35;0.77;;;;;;;;;;5059809;28;20461;-79
2020/12/14 01:20:07;;;;;;;3.35;0.80;;;;;;;;;;5065218;28;20032;-79
2020/12/14 01:22:32;;;;;;;4.15;0.93;;;;;;;;;;5070016;28;20139;-79
2020/12/14 01:24:57;;;;;;;2.58;0.80;;;;;;;;;;5068716;28;20021;-79
2020/12/14 01:27:22;;;;;;;4.25;1.02;;;;;;;;;;5070122;28;20031;-79
2020/12/14 01:29:47;;;;;;;2.13;0.73;;;;;;;;;;5068810;28;20032;-79
2020/12/14 01:32:13;;;;;;;1.23;0.30;;;;;;;;;;5070583;28;20020;-79
2020/12/14 01:34:38;;;;;;;2.40;0.80;;;;;;;;;;5073806;28;20016;-79
2020/12/14 01:37:03;;;;;;;3.03;1.00;;;;;;;;;;5069017;28;20049;-79
2020/12/14 01:39:28;;;;;;;4.15;1.10;;;;;;;;;;5063086;28;20059;-79
2020/12/14 01:41:53;;;;;;;5.35;1.20;;;;;;;;;;5074548;28;20516;-79
2020/12/14 01:44:19;;;;;;;3.60;0.98;;;;;;;;;;5074214;28;20048;-79
2020/12/14 01:46:44;;;;;;;2.42;0.80;;;;;;;;;;5075025;28;20017;-79
2020/12/14 01:49:11;;;;;;;3.08;0.93;;;;;;;;;;5076131;28;20023;-79
2020/12/14 01:51:36;;;;;;;1.73;0.80;;;;;;;;;;5074853;28;20663;-79
2020/12/14 01:54:22;;;;;;;4.93;0.95;;;;;;;;;;5075922;28;20091;-79
2020/12/14 01:56:47;;;;;;;3.05;0.80;;;;;;;;;;5075540;28;20037;-79
2020/12/14 01:59:12;;;;;;;3.40;1.00;;;;;;;;;;5074739;28;20020;-79
2020/12/14 02:01:37;;;;;;;6.95;1.05;;;;;;;;;;5074793;28;20190;-79
2020/12/14 02:04:03;;;;;;;1.42;0.82;;;;;;;;;;5076144;28;20060;-79
2020/12/14 02:06:28;;;;;;;2.15;0.88;;;;;;;;;;5074773;28;20051;-79
2020/12/14 02:08:53;;;;;;;2.72;1.00;;;;;;;;;;5074905;28;20028;-79
2020/12/14 02:11:18;;;;;;;3.35;1.15;;;;;;;;;;5076194;28;20021;-79
2020/12/14 02:13:43;;;;;;;2.78;0.88;;;;;;;;;;5076149;28;20055;-79
2020/12/14 02:16:09;;;;;;;4.18;0.98;;;;;;;;;;5076099;28;20480;-79
2020/12/14 02:18:34;;;;;;;6.75;0.95;;;;;;;;;;5075935;28;20016;-79
2020/12/14 02:20:59;;;;;;;4.13;0.80;;;;;;;;;;5074487;28;20020;-79
2020/12/14 02:23:24;;;;;;;3.28;0.85;;;;;;;;;;5074564;28;20013;-79
2020/12/14 02:25:50;;;;;;;2.60;0.80;;;;;;;;;;5074337;28;20093;-79
2020/12/14 02:28:15;;;;;;;0.73;0.60;;;;;;;;;;5072547;28;20051;-79
2020/12/14 02:30:40;;;;;;;2.92;0.73;;;;;;;;;;5065738;28;20040;-79
2020/12/14 02:33:05;;;;;;;1.60;0.77;;;;;;;;;;5075672;28;20383;-79
2020/12/14 02:35:30;;;;;;;2.63;0.90;;;;;;;;;;5074357;28;20138;-79
2020/12/14 02:37:55;;;;;;;3.72;0.88;;;;;;;;;;5075690;28;20035;-79
2020/12/14 02:40:21;;;;;;;2.65;0.90;;;;;;;;;;5075249;28;20452;-79
2020/12/14 02:42:46;;;;;;;5.20;1.00;;;;;;;;;;5074741;28;20016;-79
2020/12/14 02:45:11;;;;;;;3.25;1.25;;;;;;;;;;5073492;28;20471;-79
2020/12/14 02:47:36;;;;;;;3.35;0.93;;;;;;;;;;5074753;28;20028;-79
2020/12/14 02:50:01;;;;;;;4.55;1.08;;;;;;;;;;5074005;28;20119;-79
2020/12/14 02:52:27;;;;;;;3.40;1.10;;;;;;;;;;5074098;28;20024;-79
2020/12/14 02:54:52;;;;;;;1.85;0.85;;;;;;;;;;5075300;28;20024;-79
2020/12/14 02:57:17;;;;;;;4.82;1.05;;;;;;;;;;5074389;28;20375;-79
2020/12/14 02:59:42;;;;;;;3.50;1.08;;;;;;;;;;5073148;28;20028;-79
2020/12/14 03:02:07;;;;;;;2.58;0.68;;;;;;;;;;5074504;28;20028;-79
2020/12/14 03:04:33;;;;;;;3.72;0.80;;;;;;;;;;5074337;28;20085;-79
2020/12/14 03:06:58;;;;;;;3.05;0.90;;;;;;;;;;5073317;28;20016;-79
2020/12/14 03:09:23;;;;;;;2.55;0.80;;;;;;;;;;5074463;28;20095;-79
2020/12/14 03:11:49;;;;;;;6.03;1.20;;;;;;;;;;5074516;28;20029;-78
2020/12/14 03:14:15;;;;;;;2.35;0.70;;;;;;;;;;5074639;28;20043;-79
2020/12/14 03:16:40;;;;;;;4.13;0.77;;;;;;;;;;5074256;28;20028;-79
2020/12/14 03:19:06;;;;;;;5.85;0.90;;;;;;;;;;5074081;28;20020;-79
2020/12/14 03:21:31;;;;;;;2.85;0.80;;;;;;;;;;5073136;28;20021;-79
2020/12/14 03:23:56;;;;;;;2.65;1.00;;;;;;;;;;5074377;28;20032;-79
2020/12/14 03:26:21;;;;;;;2.10;0.70;;;;;;;;;;5073277;28;20035;-79
2020/12/14 03:28:46;;;;;;;3.20;0.90;;;;;;;;;;5074140;28;20025;-79
2020/12/14 03:31:12;;;;;;;3.95;1.00;;;;;;;;;;5072944;28;20069;-79
2020/12/14 03:33:37;;;;;;;4.40;1.15;;;;;;;;;;5072882;28;20027;-79
2020/12/14 03:36:03;;;;;;;4.38;0.80;;;;;;;;;;5074257;28;20021;-79
2020/12/14 03:38:28;;;;;;;6.45;1.00;;;;;;;;;;5073760;28;20131;-79
2020/12/14 03:40:53;;;;;;;1.90;0.80;;;;;;;;;;5073675;28;20447;-78
2020/12/14 03:43:18;;;;;;;3.65;0.82;;;;;;;;;;5073789;28;20012;-79
2020/12/14 03:45:43;;;;;;;4.60;0.90;;;;;;;;;;5073769;28;20020;-79
2020/12/14 03:48:09;;;;;;;2.05;1.20;;;;;;;;;;5073873;28;20023;-79
2020/12/14 03:50:34;;;;;;;2.15;0.80;;;;;;;;;;5073857;28;20095;-79
2020/12/14 03:52:59;;;;;;;5.18;0.80;;;;;;;;;;5072497;28;20020;-79
2020/12/14 03:55:24;;;;;;;2.47;0.95;;;;;;;;;;5072841;28;20441;-79
2020/12/14 03:57:50;;;;;;;4.43;1.10;;;;;;;;;;5073534;28;20111;-78
2020/12/14 04:00:15;;;;;;;4.25;1.23;;;;;;;;;;5071775;28;20020;-79
2020/12/14 04:02:40;;;;;;;5.13;0.90;;;;;;;;;;5072623;28;20464;-79
2020/12/14 04:05:07;;;;;;;4.32;0.90;;;;;;;;;;5073578;28;20052;-78
2020/12/14 04:07:32;;;;;;;3.40;1.05;;;;;;;;;;5071968;28;20024;-79
2020/12/14 04:09:57;;;;;;;3.17;0.90;;;;;;;;;;5072670;28;20074;-79
2020/12/14 04:12:22;;;;;;;2.80;0.77;;;;;;;;;;5073438;28;20017;-79
2020/12/14 04:14:47;;;;;;;1.80;0.70;;;;;;;;;;5073673;28;20020;-79
2020/12/14 04:17:13;;;;;;;4.13;0.90;;;;;;;;;;5071813;28;20434;-79
2020/12/14 04:19:38;;;;;;;3.72;1.08;;;;;;;;;;5073097;28;20017;-79
2020/12/14 04:22:07;;;;;;;1.92;0.77;;;;;;;;;;5070290;28;20024;-79
2020/12/14 04:24:32;;;;;;;2.60;0.98;;;;;;;;;;5070240;28;20477;-79
2020/12/14 04:26:58;;;;;;;1.90;0.70;;;;;;;;;;5070505;28;20103;-79
2020/12/14 04:29:23;;;;;;;1.85;0.95;;;;;;;;;;5069267;28;20032;-79
2020/12/14 04:31:49;;;;;;;4.55;1.65;;;;;;;;;;5071046;28;20024;-79
2020/12/14 04:34:14;;;;;;;2.35;1.13;;;;;;;;;;5070704;28;20028;-79
2020/12/14 04:36:42;;;;;;;1.58;0.93;;;;;;;;;;5068715;28;20016;-79
2020/12/14 04:39:08;;;;;;;2.45;1.10;;;;;;;;;;5069632;28;20013;-79
2020/12/14 04:41:33;;;;;;;2.28;0.80;;;;;;;;;;5070174;28;20024;-79
2020/12/14 04:43:58;;;;;;;2.67;1.02;;;;;;;;;;5070448;28;20135;-79
2020/12/14 04:46:25;;;;;;;4.15;1.10;;;;;;;;;;5069058;28;20099;-79
2020/12/14 04:48:50;;;;;;;5.20;1.20;;;;;;;;;;5069296;28;20090;-79
2020/12/14 04:51:15;;;;;;;4.15;1.40;;;;;;;;;;5071614;28;20066;-79
2020/12/14 04:53:41;;;;;;;4.07;1.08;;;;;;;;;;5071102;28;20082;-79
2020/12/14 04:56:07;;;;;;;2.97;1.13;;;;;;;;;;5072665;28;20500;-79
2020/12/14 04:58:33;;;;;;;3.65;1.00;;;;;;;;;;5071867;28;20024;-79
2020/12/14 05:00:58;;;;;;;3.60;1.10;;;;;;;;;;5072477;28;20455;-79
2020/12/14 05:03:23;;;;;;;3.47;0.98;;;;;;;;;;5072566;28;20040;-79
2020/12/14 05:05:55;;;;;;;1.92;0.80;;;;;;;;;;5071926;28;20075;-79
2020/12/14 05:08:24;;;;;;;4.60;0.90;;;;;;;;;;5070853;28;20029;-79
2020/12/14 05:10:49;;;;;;;2.17;0.95;;;;;;;;;;5072166;28;20033;-79
2020/12/14 05:13:14;;;;;;;2.67;1.00;;;;;;;;;;5071323;28;20017;-79
2020/12/14 05:15:39;;;;;;;3.17;1.02;;;;;;;;;;5070723;28;20039;-80
2020/12/14 05:18:09;;;;;;;1.42;0.82;;;;;;;;;;5070739;28;20023;-79
2020/12/14 05:20:34;;;;;;;3.92;1.00;;;;;;;;;;5072181;28;20115;-79
2020/12/14 05:23:01;;;;;;;2.28;1.10;;;;;;;;;;5090831;28;20100;-79
2020/12/14 05:25:27;;;;;;;3.35;1.40;;;;;;;;;;5064104;28;20468;-79
2020/12/14 05:28:19;;;;;;;3.33;1.20;;;;;;;;;;5066327;28;20099;-80
2020/12/14 05:30:45;;;;;;;2.92;1.05;;;;;;;;;;5072736;28;20082;-79
2020/12/14 05:33:11;;;;;;;6.90;1.45;;;;;;;;;;5072475;28;20025;-79
2020/12/14 05:35:38;;;;;;;9.52;1.20;;;;;;;;;;5072243;28;20025;-79
2020/12/14 05:38:20;;;;;;;2.35;0.82;;;;;;;;;;5071001;28;20737;-79
2020/12/14 05:40:46;;;;;;;6.18;0.88;;;;;;;;;;5072840;28;20048;-79
2020/12/14 05:43:12;;;;;;;3.42;0.90;;;;;;;;;;5066592;28;20033;-79
2020/12/14 05:45:38;;;;;;;1.85;0.90;;;;;;;;;;5070754;28;20384;-79
2020/12/14 05:48:04;;;;;;;1.90;0.90;;;;;;;;;;5070661;28;20037;-79
2020/12/14 05:50:29;;;;;;;1.65;0.90;;;;;;;;;;5072082;28;20081;-79
2020/12/14 05:52:58;;;;;;;1.92;1.00;;;;;;;;;;5072088;28;20504;-79
2020/12/14 05:55:23;;;;;;;4.32;1.20;;;;;;;;;;5071944;28;20116;-79
2020/12/14 05:57:50;;;;;;;7.35;0.85;;;;;;;;;;5070771;28;20525;-79
2020/12/14 06:00:15;;;;;;;3.95;1.00;;;;;;;;;;5071909;28;20028;-79
2020/12/14 06:02:41;;;;;;;4.57;1.38;;;;;;;;;;5072133;28;20175;-79
2020/12/14 06:05:06;;;;;;;1.23;0.70;;;;;;;;;;5071743;28;20453;-79
2020/12/14 06:07:32;;;;;;;2.50;0.90;;;;;;;;;;5070040;28;20162;-79
2020/12/14 06:10:14;;;;;;;13.48;1.25;;;;;;;;;;5072168;28;20060;-79
2020/12/14 06:12:45;;;;;;;2.83;1.00;;;;;;;;;;5070624;28;20517;-79
2020/12/14 06:15:17;;;;;;;2.50;0.93;;;;;;;;;;5070683;28;20112;-79
2020/12/14 06:17:42;;;;;;;2.65;0.88;;;;;;;;;;5071063;28;20491;-79
2020/12/14 06:20:22;;;;;;;2.38;0.90;;;;;;;;;;5075485;28;20017;-79
2020/12/14 06:22:49;;;;;;;3.20;1.10;;;;;;;;;;5074320;28;20020;-79
2020/12/14 06:25:15;;;;;;;1.88;0.98;;;;;;;;;;5074581;28;20368;-79
2020/12/14 06:27:40;;;;;;;2.72;0.80;;;;;;;;;;5074957;28;20021;-79
2020/12/14 06:30:24;;;;;;;2.83;0.80;;;;;;;;;;5073672;28;20042;-79
2020/12/14 06:32:57;;;;;;;3.45;0.95;;;;;;;;;;5073691;28;20024;-79
2020/12/14 06:35:40;;;;;;;1.65;0.68;;;;;;;;;;5074826;28;20021;-80
2020/12/14 06:38:05;;;;;;;2.30;0.80;;;;;;;;;;5073665;28;20027;-79
2020/12/14 06:40:50;;;;;;;1.58;0.85;;;;;;;;;;5056622;28;20009;-79
2020/12/14 06:43:28;;;;;;;1.58;0.63;;;;;;;;;;5056838;28;20010;-79
2020/12/14 06:45:56;;;;;;;0.88;0.70;;;;;;;;;;5058048;28;20582;-79
2020/12/14 06:48:36;;;;;;;1.15;0.73;;;;;;;;;;5065287;28;20051;-79
2020/12/14 06:51:02;;;;;;;1.20;0.70;;;;;;;;;;5062466;28;20013;-79
2020/12/14 06:53:42;;;;;;;1.85;0.80;;;;;;;;;;5071698;28;20017;-79
2020/12/14 06:56:08;;;;;;;1.42;0.50;;;;;;;;;;5072264;28;20031;-79
2020/12/14 06:58:35;;;;;;;1.67;0.70;;;;;;;;;;5071473;28;20028;-79
2020/12/14 07:01:00;;;;;;;1.63;0.70;;;;;;;;;;5071875;28;20024;-78
2020/12/14 07:03:35;;;;;;;1.70;0.57;;;;;;;;;;5066361;28;20024;-78
2020/12/14 07:06:01;;;;;;;2.30;0.70;;;;;;;;;;5060241;28;20077;-78
2020/12/14 07:08:26;;;;;;;2.70;0.60;;;;;;;;;;5074248;28;20031;-79
2020/12/14 07:11:08;;;;;;;1.00;0.57;;;;;;;;;;5051287;28;20024;-78
2020/12/14 07:13:33;;;;;;;1.90;0.70;;;;;;;;;;5071272;28;20075;-79
2020/12/14 07:16:04;;;;;;;1.40;0.50;;;;;;;;;;5056653;28;20055;-78
2020/12/14 07:18:30;;;;;;;5.32;1.63;;;;;;;;;;5060371;28;20024;-79
2020/12/14 07:20:57;;;;;;;1.55;0.90;;;;;;;;;;5068171;28;20388;-78
2020/12/14 07:23:24;;;;;;;0.10;0.10;;;;;;;;;;5068629;28;20099;-78
2020/12/14 07:25:49;;;;;;;3.90;1.00;;;;;;;;;;5077575;28;20047;-78
2020/12/14 07:28:15;;;;;;;3.80;1.00;;;;;;;;;;5068842;28;20169;-77
2020/12/14 07:30:40;;;;;;;1.85;1.00;;;;;;;;;;5067403;28;20027;-77
2020/12/14 07:33:05;;;;;;;1.90;0.70;;;;;;;;;;5069093;28;20013;-78
2020/12/14 07:35:31;;;;;;;3.08;0.95;;;;;;;;;;5070968;28;20032;-78
2020/12/14 07:37:56;;;;;;;1.08;0.45;;;;;;;;;;5080211;28;20020;-79
2020/12/14 07:40:21;;;;;;;1.60;1.02;;;;;;;;;;5074025;28;20017;-78
2020/12/14 07:42:46;;;;;;;1.40;0.32;;;;;;;;;;5064982;28;20100;-78
2020/12/14 07:45:12;;;;;;;2.58;0.93;;;;;;;;;;5065723;28;20044;-78
2020/12/14 07:47:38;;;;;;;2.70;0.88;;;;;;;;;;5068722;28;20062;-78
2020/12/14 07:50:12;;;;;;;3.97;0.90;;;;;;;;;;5060402;28;20025;-78
2020/12/14 07:52:38;;;;;;;2.83;0.88;;;;;;;;;;5067570;28;20025;-78
2020/12/14 07:55:04;;;;;;;1.85;0.80;;;;;;;;;;5068685;28;20041;-78
2020/12/14 07:57:32;;;;;;;1.33;0.70;;;;;;;;;;5068790;28;20018;-78
2020/12/14 07:59:58;;;;;;;1.85;0.80;;;;;;;;;;5063639;28;20384;-78
2020/12/14 08:02:25;;;;;;;1.90;0.68;;;;;;;;;;5055645;28;20066;-78
2020/12/14 08:04:50;;;;;;;3.08;0.60;;;;;;;;;;5056554;28;20400;-78
2020/12/14 08:07:17;;;;;;;1.63;0.60;;;;;;;;;;5061345;28;20030;-78
2020/12/14 08:09:44;;;;;;;3.22;1.17;;;;;;;;;;5073830;28;20476;-78
2020/12/14 08:12:10;;;;;;;1.65;0.70;;;;;;;;;;5063857;28;20025;-79
2020/12/14 08:14:35;;;;;;;1.95;0.70;;;;;;;;;;5075112;28;20074;-78
2020/12/14 08:17:00;;;;;;;4.55;1.00;;;;;;;;;;5078095;28;20020;-79
2020/12/14 08:19:26;;;;;;;1.35;0.80;;;;;;;;;;5069708;28;20021;-78
2020/12/14 08:22:00;;;;;;;1.10;0.80;;;;;;;;;;5061346;28;20025;-78
2020/12/14 08:24:26;;;;;;;0.77;0.55;;;;;;;;;;5064889;28;20020;-78
2020/12/14 08:26:57;;;;;;;1.63;0.77;;;;;;;;;;5069277;28;20027;-78
2020/12/14 08:29:22;;;;;;;2.45;0.60;;;;;;;;;;5063198;28;20027;-78
2020/12/14 08:31:47;;;;;;;0.80;0.60;;;;;;;;;;5068029;28;20024;-78
2020/12/14 08:34:13;;;;;;;1.33;0.85;;;;;;;;;;5067238;28;20070;-78
2020/12/14 08:36:39;;;;;;;1.58;0.50;;;;;;;;;;5062333;28;20025;-78
2020/12/14 08:39:11;;;;;;;4.72;0.85;;;;;;;;;;5059052;28;20008;-79
2020/12/14 08:41:36;;;;;;;2.80;0.93;;;;;;;;;;5095419;28;20029;-78
2020/12/14 08:44:02;;;;;;;2.13;0.85;;;;;;;;;;5068490;28;20039;-78
2020/12/14 08:46:28;;;;;;;1.42;0.70;;;;;;;;;;5071029;28;20360;-78
2020/12/14 08:48:55;;;;;;;2.85;0.80;;;;;;;;;;5066928;28;20522;-78
2020/12/14 08:51:22;;;;;;;1.02;0.43;;;;;;;;;;5066108;28;20025;-79
2020/12/14 08:53:48;;;;;;;3.85;0.70;;;;;;;;;;5063827;28;20021;-78
2020/12/14 08:56:16;;;;;;;1.77;0.65;;;;;;;;;;5062753;28;20368;-78
2020/12/14 08:58:45;;;;;;;1.95;0.77;;;;;;;;;;5066696;28;20476;-78
2020/12/14 09:01:10;;;;;;;1.02;0.60;;;;;;;;;;5066649;28;20012;-78
2020/12/14 09:03:52;;;;;;;1.40;0.73;;;;;;;;;;5066588;28;20037;-78
2020/12/14 09:06:20;;;;;;;2.40;1.00;;;;;;;;;;5069650;28;20013;-77
2020/12/14 09:09:05;;;;;;;1.95;0.75;;;;;;;;;;5075533;28;20021;-78
2020/12/14 09:11:31;;;;;;;2.50;0.70;;;;;;;;;;5082102;28;20013;-79
2020/12/14 09:13:57;;;;;;;2.00;0.60;;;;;;;;;;5086925;28;20012;-78
2020/12/14 09:16:23;;;;;;;2.38;0.82;;;;;;;;;;5058919;28;20043;-79
2020/12/14 09:18:48;;;;;;;2.05;0.65;;;;;;;;;;5063957;28;20009;-78
2020/12/14 09:21:13;;;;;;;1.30;0.60;;;;;;;;;;5072569;28;20017;-78
2020/12/14 09:23:38;;;;;;;1.33;0.65;;;;;;;;;;5059340;28;20064;-77
2020/12/14 09:26:05;;;;;;;1.67;0.80;;;;;;;;;;5076629;28;20098;-77
2020/12/14 09:28:34;;;;;;;3.55;0.82;;;;;;;;;;5072363;28;20097;-78
2020/12/14 09:30:59;;;;;;;1.63;0.85;;;;;;;;;;5068635;28;20017;-78
2020/12/14 09:33:24;;;;;;;1.35;0.73;;;;;;;;;;5102878;28;20020;-78
2020/12/14 09:35:49;;;;;;;2.40;1.10;;;;;;;;;;5077088;28;20400;-78
2020/12/14 09:38:16;;;;;;;1.88;0.90;;;;;;;;;;5063012;28;20021;-78
2020/12/14 09:40:41;;;;;;;2.25;0.93;;;;;;;;;;5068610;28;20017;-78
2020/12/14 09:43:06;;;;;;;2.15;0.80;;;;;;;;;;5063399;28;20404;-78
2020/12/14 09:45:31;;;;;;;3.92;1.13;;;;;;;;;;5071446;28;20047;-78
2020/12/14 09:47:57;;;;;;;4.43;1.25;;;;;;;;;;5079421;28;20013;-77
2020/12/14 09:50:23;;;;;;;1.67;0.73;;;;;;;;;;5081822;28;20500;-78
2020/12/14 09:52:48;;;;;;;3.05;1.05;;;;;;;;;;5068622;28;20057;-77
2020/12/14 09:55:14;;;;;;;3.65;1.00;;;;;;;;;;5078713;28;20020;-78
2020/12/14 09:57:39;;;;;;;3.67;1.13;;;;;;;;;;5068674;28;20756;-77
2020/12/14 10:00:04;;;;;;;5.88;1.20;;;;;;;;;;5073681;28;20027;-78
2020/12/14 10:02:29;;;;;;;6.35;1.40;;;;;;;;;;5069407;28;20450;-78
2020/12/14 10:04:54;;;;;;;2.40;0.98;;;;;;;;;;5084881;28;20017;-78
2020/12/14 10:07:20;;;;;;;3.08;1.33;;;;;;;;;;5082332;28;20024;-77
2020/12/14 10:09:45;;;;;;;5.43;1.50;;;;;;;;;;5084303;28;20017;-78
2020/12/14 10:12:10;;;;;;;3.80;1.20;;;;;;;;;;5075535;28;20025;-78
2020/12/14 10:14:35;;;;;;;3.13;1.40;;;;;;;;;;5065491;28;20028;-78
2020/12/14 10:17:00;;;;;;;4.20;2.45;;;;;;;;;;5073978;28;20020;-78
2020/12/14 10:19:26;;;;;;;4.50;1.60;;;;;;;;;;5077338;28;20043;-78
2020/12/14 10:21:52;;;;;;;3.60;0.63;;;;;;;;;;5063823;28;20028;-78
2020/12/14 10:24:17;;;;;;;1.83;0.40;;;;;;;;;;5072648;28;20020;-78
2020/12/14 10:26:42;;;;;;;4.38;0.82;;;;;;;;;;5085894;28;20021;-77
2020/12/14 10:29:07;;;;;;;2.50;0.50;;;;;;;;;;5080940;28;20098;-78
2020/12/14 10:31:33;;;;;;;3.17;0.85;;;;;;;;;;5069201;28;20029;-77
2020/12/14 10:33:59;;;;;;;2.85;0.98;;;;;;;;;;5070614;28;20025;-77
2020/12/14 10:36:24;;;;;;;7.22;1.40;;;;;;;;;;5074480;28;20474;-77
2020/12/14 10:38:49;;;;;;;2.22;1.00;;;;;;;;;;5063210;28;20032;-77
2020/12/14 10:41:15;;;;;;;5.35;1.38;;;;;;;;;;5070301;28;20020;-79
2020/12/14 10:43:40;;;;;;;3.72;1.40;;;;;;;;;;5099633;28;20019;-79
2020/12/14 10:46:05;;;;;;;5.82;1.30;;;;;;;;;;5070719;28;20020;-79
2020/12/14 10:48:31;;;;;;;1.45;0.88;;;;;;;;;;5073860;28;20414;-79
2020/12/14 10:50:56;;;;;;;2.63;1.30;;;;;;;;;;5064508;28;20099;-79
2020/12/14 10:53:21;;;;;;;3.63;1.15;;;;;;;;;;5060281;28;20025;-79
2020/12/14 10:55:46;;;;;;;6.38;1.20;;;;;;;;;;5054753;28;20116;-79
2020/12/14 10:58:11;;;;;;;1.63;1.00;;;;;;;;;;5053283;28;20467;-79
2020/12/14 11:00:37;;;;;;;4.20;1.52;;;;;;;;;;5064630;28;20029;-79
2020/12/14 11:03:02;;;;;;;4.88;1.30;;;;;;;;;;5094819;27;20028;-80
2020/12/14 11:05:28;;;;;;;5.72;1.13;;;;;;;;;;5068613;28;20065;-80
2020/12/14 11:07:54;;;;;;;5.20;1.50;;;;;;;;;;5053361;28;20101;-80
2020/12/14 11:10:19;;;;;;;2.65;1.30;;;;;;;;;;5074571;28;20028;-80
2020/12/14 11:12:45;;;;;;;2.55;1.70;;;;;;;;;;5060117;28;20029;-80
2020/12/14 11:15:10;;;;;;;3.95;1.33;;;;;;;;;;5059717;28;20025;-80
2020/12/14 11:17:36;;;;;;;2.25;1.25;;;;;;;;;;5066757;28;20443;-80
2020/12/14 11:20:03;;;;;;;4.07;1.38;;;;;;;;;;5062169;28;20043;-80
2020/12/14 11:22:28;;;;;;;5.65;1.70;;;;;;;;;;5066403;28;20487;-81
2020/12/14 11:24:53;;;;;;;9.73;1.58;;;;;;;;;;5072025;28;20027;-80
2020/12/14 11:27:18;;;;;;;1.70;0.70;;;;;;;;;;5066974;28;20078;-80
2020/12/14 11:29:43;;;;;;;2.88;1.05;;;;;;;;;;5058037;28;20403;-80
2020/12/14 11:32:09;;;;;;;3.95;1.40;;;;;;;;;;5058009;28;20032;-80
2020/12/14 11:34:34;;;;;;;4.97;1.40;;;;;;;;;;5065851;28;20108;-80
2020/12/14 11:36:59;;;;;;;3.88;1.40;;;;;;;;;;5067632;28;20416;-80
2020/12/14 11:39:25;;;;;;;3.17;1.13;;;;;;;;;;5063184;28;20025;-80
2020/12/14 11:41:50;;;;;;;3.22;1.50;;;;;;;;;;5076838;28;20027;-79
2020/12/14 11:44:16;;;;;;;5.72;1.60;;;;;;;;;;5063530;28;20111;-80
2020/12/14 11:46:41;;;;;;;5.18;1.40;;;;;;;;;;5064279;28;20025;-80
2020/12/14 11:49:07;;;;;;;7.47;1.88;;;;;;;;;;5063573;28;20025;-79
2020/12/14 11:51:34;;;;;;;12.73;1.50;;;;;;;;;;5076733;28;20523;-79
2020/12/14 11:53:59;;;;;;;5.30;1.88;;;;;;;;;;5066578;28;20456;-79
2020/12/14 11:56:24;;;;;;;4.40;1.60;;;;;;;;;;5058601;28;20020;-79
2020/12/14 11:58:50;;;;;;;5.03;1.40;;;;;;;;;;5064036;28;20116;-80
2020/12/14 12:01:19;;;;;;;2.55;1.00;;;;;;;;;;5069327;28;20016;-80
2020/12/14 12:03:45;;;;;;;5.78;1.70;;;;;;;;;;5068231;28;20021;-80
2020/12/14 12:06:10;;;;;;;6.35;1.40;;;;;;;;;;5069412;28;20063;-80
2020/12/14 12:08:35;;;;;;;7.68;1.42;;;;;;;;;;5064951;28;20087;-80
2020/12/14 12:11:00;;;;;;;5.78;1.90;;;;;;;;;;5070609;28;20487;-80
2020/12/14 12:13:25;;;;;;;10.52;1.73;;;;;;;;;;5064712;28;20070;-80
2020/12/14 12:15:50;;;;;;;4.72;1.55;;;;;;;;;;5070648;28;20108;-80
2020/12/14 12:18:16;;;;;;;5.30;1.65;;;;;;;;;;5077797;28;20024;-80
2020/12/14 12:20:41;;;;;;;4.22;1.75;;;;;;;;;;5065318;28;20024;-80
2020/12/14 12:23:06;;;;;;;6.35;1.77;;;;;;;;;;5066344;28;20143;-80
2020/12/14 12:25:32;;;;;;;4.25;1.40;;;;;;;;;;5063955;28;20067;-80
2020/12/14 12:27:57;;;;;;;8.27;1.40;;;;;;;;;;5059723;28;20396;-80
2020/12/14 12:30:22;;;;;;;3.20;1.60;;;;;;;;;;5071218;28;20496;-80
2020/12/14 12:32:48;;;;;;;2.70;1.52;;;;;;;;;;5066151;28;20577;-80
2020/12/14 12:35:13;;;;;;;3.50;1.40;;;;;;;;;;5068330;28;20095;-80
2020/12/14 12:37:38;;;;;;;6.75;1.70;;;;;;;;;;5065000;28;20012;-80
2020/12/14 12:40:06;;;;;;;8.52;1.50;;;;;;;;;;5101579;27;20052;-80
2020/12/14 12:42:31;;;;;;;6.28;1.52;;;;;;;;;;5070979;28;20023;-80
2020/12/14 12:44:57;;;;;;;3.50;1.40;;;;;;;;;;5059716;28;20025;-79
2020/12/14 12:47:22;;;;;;;6.55;1.23;;;;;;;;;;5075272;28;20104;-79
2020/12/14 12:49:47;;;;;;;3.40;1.30;;;;;;;;;;5071856;28;20047;-79
2020/12/14 12:52:12;;;;;;;3.83;1.73;;;;;;;;;;5069706;28;20028;-79
2020/12/14 12:54:37;;;;;;;5.07;1.40;;;;;;;;;;5055634;28;20476;-79
2020/12/14 12:57:03;;;;;;;4.45;1.50;;;;;;;;;;5058804;28;20021;-79
2020/12/14 12:59:29;;;;;;;6.00;1.60;;;;;;;;;;5075726;28;20395;-79
2020/12/14 13:01:54;;;;;;;4.30;1.73;;;;;;;;;;5063599;28;20029;-80
2020/12/14 13:04:19;;;;;;;5.13;1.25;;;;;;;;;;5064730;28;20025;-79
2020/12/14 13:06:45;;;;;;;3.92;1.40;;;;;;;;;;5062756;28;20028;-80
2020/12/14 13:09:10;;;;;;;5.43;1.38;;;;;;;;;;5075096;28;20025;-80
2020/12/14 13:11:39;;;;;;;7.70;1.70;;;;;;;;;;5058172;28;20099;-80
2020/12/14 13:14:04;;;;;;;5.07;1.45;;;;;;;;;;5079303;28;20242;-79
2020/12/14 13:16:29;;;;;;;4.68;1.70;;;;;;;;;;5076535;28;20055;-79
2020/12/14 13:18:54;;;;;;;3.28;0.95;;;;;;;;;;5060181;28;20357;-79
2020/12/14 13:21:38;;;;;;;6.43;1.85;;;;;;;;;;5063823;28;20013;-80
2020/12/14 13:24:04;;;;;;;6.07;1.52;;;;;;;;;;5064164;28;20035;-79
2020/12/14 13:26:32;;;;;;;4.25;1.73;;;;;;;;;;5071853;28;20032;-80
2020/12/14 13:28:57;;;;;;;5.13;1.73;;;;;;;;;;5066422;28;20453;-79
2020/12/14 13:31:26;;;;;;;5.78;1.40;;;;;;;;;;5096921;28;20028;-79
2020/12/14 13:33:52;;;;;;;6.78;1.63;;;;;;;;;;5055950;28;20104;-79
2020/12/14 13:36:18;;;;;;;4.35;1.35;;;;;;;;;;5075036;28;20444;-80
2020/12/14 13:38:44;;;;;;;3.88;1.55;;;;;;;;;;5062662;28;20107;-80
2020/12/14 13:41:09;;;;;;;4.70;1.80;;;;;;;;;;5066925;28;20039;-80
2020/12/14 13:43:34;;;;;;;3.47;1.33;;;;;;;;;;5058957;28;20444;-79
2020/12/14 13:45:59;;;;;;;4.60;1.33;;;;;;;;;;5060366;28;20462;-79
2020/12/14 13:48:25;;;;;;;5.03;1.45;;;;;;;;;;5061980;28;20100;-79
2020/12/14 13:50:50;;;;;;;5.53;1.20;;;;;;;;;;5066041;28;20468;-80
2020/12/14 13:53:15;;;;;;;3.95;1.48;;;;;;;;;;5067896;28;20116;-80
2020/12/14 13:55:40;;;;;;;5.90;1.23;;;;;;;;;;5068292;28;20028;-79
2020/12/14 13:58:05;;;;;;;5.25;1.45;;;;;;;;;;5070538;28;20390;-79
2020/12/14 14:00:31;;;;;;;5.75;1.67;;;;;;;;;;5065879;28;20044;-79
2020/12/14 14:02:57;;;;;;;5.80;1.73;;;;;;;;;;5070259;28;20029;-79
2020/12/14 14:05:22;;;;;;;4.45;1.60;;;;;;;;;;5066229;28;20475;-79
2020/12/14 14:07:47;;;;;;;8.15;2.00;;;;;;;;;;5069335;28;20066;-79
2020/12/14 14:10:13;;;;;;;7.55;2.08;;;;;;;;;;5058267;28;20028;-79
2020/12/14 14:12:38;;;;;;;5.93;1.70;;;;;;;;;;5068806;28;20109;-79
2020/12/14 14:15:04;;;;;;;8.38;2.10;;;;;;;;;;5070950;28;20540;-79
2020/12/14 14:17:29;;;;;;;5.25;2.00;;;;;;;;;;5071122;28;20024;-79
2020/12/14 14:19:54;;;;;;;4.18;1.70;;;;;;;;;;5082242;28;20023;-79
2020/12/14 14:22:20;;;;;;;4.65;1.80;;;;;;;;;;5065931;28;20028;-80
2020/12/14 14:24:45;;;;;;;5.70;1.75;;;;;;;;;;5054983;28;20053;-79
2020/12/14 14:27:10;;;;;;;6.80;2.05;;;;;;;;;;5063401;28;20025;-79
2020/12/14 14:29:35;;;;;;;8.25;2.20;;;;;;;;;;5071325;28;20469;-79
2020/12/14 14:32:00;;;;;;;6.53;1.80;;;;;;;;;;5061054;28;20441;-79
2020/12/14 14:34:26;;;;;;;6.50;2.00;;;;;;;;;;5098652;28;20055;-79
2020/12/14 14:36:52;;;;;;;3.53;2.05;;;;;;;;;;5065974;28;20019;-79